createdAt,value
2022-10-22T00:00:24.525Z,14.3
2022-10-22T00:01:24.497Z,14.26
2022-10-22T00:02:25.742Z,14.23
2022-10-22T00:03:24.486Z,14.16
2022-10-22T00:04:24.638Z,14.36
2022-10-22T00:05:24.493Z,14.23
2022-10-22T00:06:24.603Z,14.22
2022-10-22T00:07:24.488Z,14.2
2022-10-22T00:08:27.418Z,14.22
2022-10-22T00:09:24.630Z,14.3
2022-10-22T00:10:24.481Z,14.26
2022-10-22T00:11:24.515Z,14.31
2022-10-22T00:12:24.503Z,14.26
2022-10-22T00:13:24.848Z,14.19
2022-10-22T00:14:24.510Z,14.15
2022-10-22T00:15:24.499Z,14.31
2022-10-22T00:16:24.511Z,14.2
2022-10-22T00:17:24.517Z,14.31
2022-10-22T00:18:24.531Z,14.28
2022-10-22T00:19:27.702Z,14.28
2022-10-22T00:20:24.503Z,14.28
2022-10-22T00:21:24.516Z,14.23
2022-10-22T00:22:24.506Z,14.2
2022-10-22T00:23:24.519Z,14.22
2022-10-22T00:24:25.776Z,14.28
2022-10-22T00:25:24.523Z,14.15
2022-10-22T00:26:24.518Z,14.19
2022-10-22T00:27:24.557Z,14.18
2022-10-22T00:28:24.648Z,14.22
2022-10-22T00:29:24.606Z,14.15
2022-10-22T00:30:27.524Z,14.19
2022-10-22T00:31:24.530Z,14.19
2022-10-22T00:32:24.522Z,14.28
2022-10-22T00:33:24.550Z,14.2
2022-10-22T00:34:24.574Z,14.19
2022-10-22T00:35:25.686Z,14.26
2022-10-22T00:36:24.561Z,14.19
2022-10-22T00:37:24.531Z,14.23
2022-10-22T00:38:24.539Z,14.23
2022-10-22T00:39:24.691Z,14.2
2022-10-22T00:40:24.531Z,14.3
2022-10-22T00:41:24.541Z,14.34
2022-10-22T00:42:25.584Z,14.25
2022-10-22T00:43:24.563Z,14.26
2022-10-22T00:44:24.599Z,14.37
2022-10-22T00:45:24.622Z,14.33
2022-10-22T00:46:25.652Z,14.31
2022-10-22T00:47:24.563Z,14.26
2022-10-22T00:48:24.601Z,14.26
2022-10-22T00:49:24.589Z,14.31
2022-10-22T00:50:24.598Z,14.37
2022-10-22T00:51:24.578Z,14.41
2022-10-22T00:52:24.560Z,14.44
2022-10-22T00:53:24.571Z,14.37
2022-10-22T00:54:24.584Z,14.4
2022-10-22T00:55:24.563Z,14.41
2022-10-22T00:59:39.345Z,14.34
2022-10-22T01:00:24.608Z,14.38
2022-10-22T01:01:25.012Z,14.43
2022-10-22T01:02:27.624Z,14.38
2022-10-22T01:03:24.583Z,14.37
2022-10-22T01:04:24.575Z,14.41
2022-10-22T01:05:24.624Z,14.43
2022-10-22T01:06:24.583Z,14.34
2022-10-22T01:07:24.581Z,14.4
2022-10-22T01:08:24.600Z,14.45
2022-10-22T01:09:24.592Z,14.43
2022-10-22T01:10:24.607Z,14.44
2022-10-22T01:11:24.591Z,14.41
2022-10-22T01:12:24.597Z,14.37
2022-10-22T01:13:24.594Z,14.41
2022-10-22T01:14:24.620Z,14.37
2022-10-22T01:15:24.607Z,14.36
2022-10-22T01:16:24.629Z,14.49
2022-10-22T01:17:25.695Z,14.38
2022-10-22T01:18:27.649Z,14.38
2022-10-22T01:19:24.607Z,14.4
2022-10-22T01:20:27.641Z,14.44
2022-10-22T01:21:24.639Z,14.43
2022-10-22T01:22:24.610Z,14.43
2022-10-22T01:23:24.613Z,14.44
2022-10-22T01:24:24.620Z,14.48
2022-10-22T01:27:24.617Z,14.48
2022-10-22T01:28:24.625Z,14.51
2022-10-22T01:29:27.623Z,14.45
2022-10-22T01:30:24.629Z,14.37
2022-10-22T01:31:24.620Z,14.44
2022-10-22T01:32:24.672Z,14.44
2022-10-22T01:33:24.655Z,14.44
2022-10-22T01:34:24.633Z,14.44
2022-10-22T01:35:24.839Z,14.44
2022-10-22T01:36:24.634Z,14.44
2022-10-22T01:37:24.678Z,14.48
2022-10-22T01:38:24.642Z,14.58
2022-10-22T01:39:24.662Z,14.49
2022-10-22T01:40:27.775Z,14.53
2022-10-22T01:41:24.650Z,14.62
2022-10-22T01:42:24.690Z,14.58
2022-10-22T01:43:24.650Z,14.59
2022-10-22T01:44:24.734Z,14.62
2022-10-22T01:45:24.644Z,14.55
2022-10-22T01:46:24.651Z,14.68
2022-10-22T01:47:24.684Z,14.66
2022-10-22T01:48:24.680Z,14.63
2022-10-22T01:49:24.671Z,14.68
2022-10-22T01:50:24.649Z,14.67
2022-10-22T01:51:27.446Z,14.66
2022-10-22T01:52:24.684Z,14.58
2022-10-22T01:53:24.689Z,14.7
2022-10-22T01:54:24.670Z,14.71
2022-10-22T01:55:24.710Z,14.77
2022-10-22T01:56:24.727Z,14.78
2022-10-22T01:57:30.477Z,14.82
2022-10-22T01:58:24.672Z,14.74
2022-10-22T01:59:28.771Z,14.71
2022-10-22T02:00:24.761Z,14.78
2022-10-22T02:01:24.732Z,14.78
2022-10-22T02:02:27.480Z,14.85
2022-10-22T02:03:28.253Z,14.85
2022-10-22T02:04:24.680Z,14.82
2022-10-22T02:05:24.708Z,14.82
2022-10-22T02:06:24.681Z,14.74
2022-10-22T02:07:24.710Z,14.87
2022-10-22T02:08:24.695Z,14.82
2022-10-22T02:09:24.714Z,14.78
2022-10-22T02:10:24.682Z,14.79
2022-10-22T02:11:24.841Z,14.73
2022-10-22T02:12:24.709Z,14.73
2022-10-22T02:13:27.441Z,14.81
2022-10-22T02:14:24.696Z,14.81
2022-10-22T02:15:24.700Z,14.73
2022-10-22T02:16:24.738Z,14.81
2022-10-22T02:17:24.717Z,14.81
2022-10-22T02:18:24.718Z,14.78
2022-10-22T02:19:24.736Z,14.77
2022-10-22T02:20:24.705Z,14.74
2022-10-22T02:21:24.742Z,14.78
2022-10-22T02:22:24.910Z,14.79
2022-10-22T02:23:24.714Z,14.71
2022-10-22T02:24:27.766Z,14.89
2022-10-22T02:25:24.740Z,14.7
2022-10-22T02:26:24.721Z,14.81
2022-10-22T02:27:30.603Z,14.81
2022-10-22T02:28:24.721Z,14.85
2022-10-22T02:29:24.723Z,14.78
2022-10-22T02:30:24.781Z,14.85
2022-10-22T02:31:24.729Z,14.79
2022-10-22T02:32:24.776Z,14.78
2022-10-22T02:33:24.730Z,14.71
2022-10-22T02:34:24.749Z,14.7
2022-10-22T02:35:27.556Z,14.77
2022-10-22T02:36:24.774Z,14.78
2022-10-22T02:37:24.785Z,14.73
2022-10-22T02:38:24.739Z,14.73
2022-10-22T02:39:24.751Z,14.74
2022-10-22T02:40:24.826Z,14.79
2022-10-22T02:41:24.765Z,14.7
2022-10-22T02:42:24.767Z,14.77
2022-10-22T02:43:24.742Z,14.71
2022-10-22T02:44:24.752Z,14.78
2022-10-22T02:45:24.777Z,14.79
2022-10-22T02:46:27.774Z,14.74
2022-10-22T02:47:24.762Z,14.71
2022-10-22T02:48:29.550Z,14.7
2022-10-22T02:49:24.767Z,14.81
2022-10-22T02:50:24.771Z,14.71
2022-10-22T02:51:27.793Z,14.77
2022-10-22T02:52:24.792Z,14.7
2022-10-22T02:53:24.805Z,14.66
2022-10-22T02:54:24.778Z,14.55
2022-10-22T02:55:24.788Z,14.71
2022-10-22T02:56:24.811Z,14.63
2022-10-22T02:57:29.012Z,14.67
2022-10-22T02:58:24.769Z,14.66
2022-10-22T02:59:25.795Z,14.68
2022-10-22T03:00:24.794Z,14.63
2022-10-22T03:01:24.922Z,14.53
2022-10-22T03:02:25.854Z,14.58
2022-10-22T03:03:24.790Z,14.51
2022-10-22T03:04:24.780Z,14.53
2022-10-22T03:05:24.787Z,14.58
2022-10-22T03:07:25.903Z,14.58
2022-10-22T03:08:24.812Z,14.58
2022-10-22T03:09:28.744Z,14.53
2022-10-22T03:10:24.807Z,14.55
2022-10-22T03:11:25.859Z,14.59
2022-10-22T03:12:24.816Z,14.55
2022-10-22T03:13:24.833Z,14.59
2022-10-22T03:14:24.799Z,14.63
2022-10-22T03:15:24.981Z,14.66
2022-10-22T03:16:24.808Z,14.7
2022-10-22T03:17:24.827Z,14.63
2022-10-22T03:18:24.801Z,14.66
2022-10-22T03:19:24.805Z,14.68
2022-10-22T03:20:24.826Z,14.63
2022-10-22T03:21:24.814Z,14.55
2022-10-22T03:22:24.838Z,14.68
2022-10-22T03:23:24.834Z,14.56
2022-10-22T03:24:24.809Z,14.59
2022-10-22T03:25:24.839Z,14.58
2022-10-22T03:26:24.819Z,14.63
2022-10-22T03:27:25.787Z,14.59
2022-10-22T03:28:24.821Z,14.63
2022-10-22T03:29:27.615Z,14.67
2022-10-22T03:30:24.817Z,14.62
2022-10-22T03:31:24.826Z,14.59
2022-10-22T03:32:24.852Z,14.53
2022-10-22T03:33:24.829Z,14.63
2022-10-22T03:34:24.846Z,14.56
2022-10-22T03:35:24.837Z,14.55
2022-10-22T03:36:24.851Z,14.61
2022-10-22T03:37:24.861Z,14.58
2022-10-22T03:38:24.843Z,14.52
2022-10-22T03:39:24.865Z,14.55
2022-10-22T03:40:27.802Z,14.58
2022-10-22T03:41:24.842Z,14.56
2022-10-22T03:42:24.876Z,14.59
2022-10-22T03:43:24.842Z,14.61
2022-10-22T03:44:24.850Z,14.55
2022-10-22T03:45:28.204Z,14.61
2022-10-22T03:46:24.864Z,14.56
2022-10-22T03:47:24.891Z,14.58
2022-10-22T03:48:24.863Z,14.63
2022-10-22T03:49:24.850Z,14.56
2022-10-22T03:50:24.862Z,14.59
2022-10-22T03:51:27.723Z,14.55
2022-10-22T03:52:24.884Z,14.59
2022-10-22T03:53:24.869Z,14.59
2022-10-22T03:54:24.937Z,14.63
2022-10-22T03:55:24.896Z,14.62
2022-10-22T03:56:27.714Z,14.56
2022-10-22T03:57:24.889Z,14.59
2022-10-22T03:58:24.865Z,14.55
2022-10-22T03:59:24.872Z,14.67
2022-10-22T04:00:24.872Z,14.61
2022-10-22T04:01:25.099Z,14.59
2022-10-22T04:02:24.905Z,14.59
2022-10-22T04:03:24.880Z,14.63
2022-10-22T04:04:24.882Z,14.53
2022-10-22T04:05:24.902Z,14.59
2022-10-22T04:06:24.879Z,14.58
2022-10-22T04:07:27.683Z,14.48
2022-10-22T04:08:24.886Z,14.58
2022-10-22T04:09:24.883Z,14.52
2022-10-22T04:10:24.905Z,14.45
2022-10-22T04:11:24.919Z,14.52
2022-10-22T04:12:24.923Z,14.51
2022-10-22T04:13:24.909Z,14.51
2022-10-22T04:14:24.906Z,14.44
2022-10-22T04:15:24.900Z,14.49
2022-10-22T04:16:29.960Z,14.48
2022-10-22T04:17:24.937Z,14.44
2022-10-22T04:18:27.723Z,14.45
2022-10-22T04:19:24.910Z,14.38
2022-10-22T04:20:24.908Z,14.51
2022-10-22T04:21:24.945Z,14.44
2022-10-22T04:22:24.915Z,14.52
2022-10-22T04:23:25.059Z,14.36
2022-10-22T04:24:24.932Z,14.4
2022-10-22T04:25:24.920Z,14.45
2022-10-22T04:26:24.920Z,14.43
2022-10-22T04:27:24.953Z,14.44
2022-10-22T04:28:24.942Z,14.56
2022-10-22T04:29:28.050Z,14.45
2022-10-22T04:30:24.931Z,14.49
2022-10-22T04:31:24.937Z,14.37
2022-10-22T04:32:24.940Z,14.48
2022-10-22T04:33:24.967Z,14.41
2022-10-22T04:34:24.927Z,14.38
2022-10-22T04:36:24.939Z,14.43
2022-10-22T04:37:24.942Z,14.49
2022-10-22T04:38:24.938Z,14.48
2022-10-22T04:39:24.937Z,14.43
2022-10-22T04:40:27.809Z,14.45
2022-10-22T04:41:24.946Z,14.51
2022-10-22T04:42:24.942Z,14.49
2022-10-22T04:43:24.974Z,14.36
2022-10-22T04:44:25.190Z,14.37
2022-10-22T04:45:24.955Z,14.37
2022-10-22T04:46:24.945Z,14.44
2022-10-22T04:47:24.949Z,14.44
2022-10-22T04:48:24.973Z,14.34
2022-10-22T04:49:25.101Z,14.43
2022-10-22T04:50:24.968Z,14.41
2022-10-22T04:51:27.970Z,14.44
2022-10-22T04:52:24.985Z,14.44
2022-10-22T04:53:24.966Z,14.49
2022-10-22T04:54:26.671Z,14.37
2022-10-22T04:55:25.190Z,14.41
2022-10-22T04:56:25.051Z,14.36
2022-10-22T04:57:24.977Z,14.38
2022-10-22T04:58:24.972Z,14.36
2022-10-22T04:59:24.994Z,14.45
2022-10-22T05:00:25.007Z,14.44
2022-10-22T05:01:25.328Z,14.48
2022-10-22T05:02:33.845Z,14.33
2022-10-22T05:03:25.029Z,14.36
2022-10-22T05:04:25.006Z,14.33
2022-10-22T05:05:25.014Z,14.31
2022-10-22T05:06:24.997Z,14.3
2022-10-22T05:07:24.999Z,14.38
2022-10-22T05:08:25.020Z,14.34
2022-10-22T05:09:25.146Z,14.43
2022-10-22T05:10:25.010Z,14.33
2022-10-22T05:11:24.992Z,14.38
2022-10-22T05:12:24.999Z,14.38
2022-10-22T05:13:26.186Z,14.3
2022-10-22T05:14:25.006Z,14.33
2022-10-22T05:15:25.022Z,14.34
2022-10-22T05:16:25.025Z,14.34
2022-10-22T05:17:25.020Z,14.3
2022-10-22T05:18:27.278Z,14.3
2022-10-22T05:19:25.024Z,14.36
2022-10-22T05:20:25.005Z,14.3
2022-10-22T05:21:25.038Z,14.26
2022-10-22T05:22:25.017Z,14.2
2022-10-22T05:23:25.041Z,14.22
2022-10-22T05:24:27.817Z,14.23
2022-10-22T05:25:25.026Z,14.19
2022-10-22T05:26:25.024Z,14.16
2022-10-22T05:27:25.046Z,14.23
2022-10-22T05:28:25.068Z,14.18
2022-10-22T05:29:42.971Z,14.19
2022-10-22T05:30:25.036Z,14.15
2022-10-22T05:31:25.201Z,14.26
2022-10-22T05:32:25.063Z,14.2
2022-10-22T05:33:28.717Z,14.19
2022-10-22T05:34:25.026Z,14.11
2022-10-22T05:35:25.040Z,14.19
2022-10-22T05:36:25.043Z,14.13
2022-10-22T05:37:25.054Z,14.16
2022-10-22T05:38:25.044Z,14.08
2022-10-22T05:39:25.078Z,14.11
2022-10-22T05:40:36.117Z,14.13
2022-10-22T05:41:25.045Z,14.07
2022-10-22T05:42:25.056Z,14.07
2022-10-22T05:43:25.053Z,14.11
2022-10-22T05:44:25.067Z,14.05
2022-10-22T05:45:25.045Z,14.08
2022-10-22T05:46:27.570Z,14.04
2022-10-22T05:47:25.058Z,14.11
2022-10-22T05:48:28.080Z,14.12
2022-10-22T05:49:25.053Z,14
2022-10-22T05:50:25.063Z,14.07
2022-10-22T05:51:25.061Z,13.95
2022-10-22T05:52:25.080Z,14.03
2022-10-22T05:53:25.095Z,14.01
2022-10-22T05:54:25.083Z,14.03
2022-10-22T05:55:25.068Z,14.07
2022-10-22T05:56:28.171Z,14.01
2022-10-22T05:57:25.080Z,14.04
2022-10-22T05:58:25.066Z,14.03
2022-10-22T05:59:28.082Z,13.98
2022-10-22T06:00:25.100Z,14.03
2022-10-22T06:01:25.086Z,14.04
2022-10-22T06:02:25.323Z,14
2022-10-22T06:03:25.084Z,14.01
2022-10-22T06:04:25.145Z,14.05
2022-10-22T06:05:25.089Z,13.94
2022-10-22T06:06:25.087Z,13.89
2022-10-22T06:07:28.112Z,13.85
2022-10-22T06:08:25.125Z,13.83
2022-10-22T06:09:25.192Z,13.87
2022-10-22T06:10:25.104Z,13.85
2022-10-22T06:11:25.147Z,13.91
2022-10-22T06:12:28.124Z,13.87
2022-10-22T06:13:25.116Z,13.93
2022-10-22T06:14:25.105Z,13.85
2022-10-22T06:15:25.124Z,13.86
2022-10-22T06:16:25.105Z,13.83
2022-10-22T06:17:25.153Z,13.86
2022-10-22T06:18:28.249Z,13.86
2022-10-22T06:19:25.118Z,13.89
2022-10-22T06:20:25.134Z,13.87
2022-10-22T06:21:25.131Z,14.07
2022-10-22T06:22:25.123Z,13.95
2022-10-22T06:23:28.139Z,13.93
2022-10-22T06:24:25.125Z,13.97
2022-10-22T06:25:25.143Z,13.98
2022-10-22T06:26:27.923Z,14.04
2022-10-22T06:27:25.116Z,14
2022-10-22T06:28:26.263Z,13.95
2022-10-22T06:29:25.166Z,13.98
2022-10-22T06:30:25.136Z,14
2022-10-22T06:31:25.153Z,13.93
2022-10-22T06:32:25.138Z,14.01
2022-10-22T06:33:25.131Z,14
2022-10-22T06:34:28.042Z,13.97
2022-10-22T06:35:25.142Z,13.98
2022-10-22T06:36:25.174Z,14
2022-10-22T06:37:25.143Z,14.04
2022-10-22T06:38:25.142Z,14.04
2022-10-22T06:39:25.162Z,14.11
2022-10-22T06:40:25.148Z,14.13
2022-10-22T06:41:31.098Z,14.13
2022-10-22T06:42:25.181Z,14.08
2022-10-22T06:43:25.164Z,14.16
2022-10-22T06:44:25.159Z,14.13
2022-10-22T06:45:28.302Z,14.13
2022-10-22T06:46:25.161Z,14.07
2022-10-22T06:47:25.190Z,14.19
2022-10-22T06:48:25.177Z,14.13
2022-10-22T06:49:28.104Z,14.18
2022-10-22T06:50:25.229Z,14.19
2022-10-22T06:51:25.172Z,14.19
2022-10-22T06:52:25.203Z,14.22
2022-10-22T06:53:26.277Z,14.23
2022-10-22T06:54:25.198Z,14.34
2022-10-22T06:55:25.179Z,14.22
2022-10-22T06:56:26.464Z,14.2
2022-10-22T06:57:25.225Z,14.16
2022-10-22T06:58:25.359Z,14.13
2022-10-22T06:59:25.225Z,14.23
2022-10-22T07:00:25.610Z,14.22
2022-10-22T07:01:25.486Z,14.22
2022-10-22T07:02:25.206Z,14.22
2022-10-22T07:03:25.181Z,14.23
2022-10-22T07:04:25.201Z,14.19
2022-10-22T07:05:25.599Z,14.2
2022-10-22T07:06:25.307Z,14.15
2022-10-22T07:07:28.042Z,14.2
2022-10-22T07:08:25.340Z,14.2
2022-10-22T07:09:25.262Z,14.2
2022-10-22T07:10:30.001Z,14.2
2022-10-22T07:11:25.400Z,14.23
2022-10-22T07:12:25.229Z,14.19
2022-10-22T07:13:25.344Z,14.19
2022-10-22T07:14:25.323Z,14.23
2022-10-22T07:15:26.257Z,14.23
2022-10-22T07:16:32.439Z,14.3
2022-10-22T07:17:25.359Z,14.25
2022-10-22T07:18:28.318Z,14.34
2022-10-22T07:19:26.284Z,14.25
2022-10-22T07:20:25.241Z,14.28
2022-10-22T07:21:25.216Z,14.28
2022-10-22T07:22:25.253Z,14.33
2022-10-22T07:23:25.446Z,14.19
2022-10-22T07:24:25.257Z,14.19
2022-10-22T07:25:28.402Z,14.25
2022-10-22T07:26:25.245Z,14.26
2022-10-22T07:27:25.253Z,14.19
2022-10-22T07:28:25.222Z,14.33
2022-10-22T07:29:28.211Z,14.33
2022-10-22T07:30:25.265Z,14.31
2022-10-22T07:31:25.244Z,14.31
2022-10-22T07:32:28.470Z,14.41
2022-10-22T07:33:25.245Z,14.41
2022-10-22T07:34:25.295Z,14.36
2022-10-22T07:35:25.246Z,14.38
2022-10-22T07:36:25.244Z,14.44
2022-10-22T07:37:25.248Z,14.43
2022-10-22T07:38:25.659Z,14.49
2022-10-22T07:39:25.285Z,14.49
2022-10-22T07:40:28.347Z,14.61
2022-10-22T07:41:25.295Z,14.62
2022-10-22T07:42:25.393Z,14.62
2022-10-22T07:43:25.299Z,14.85
2022-10-22T07:44:25.276Z,14.78
2022-10-22T07:45:28.061Z,14.9
2022-10-22T07:46:25.254Z,14.9
2022-10-22T07:47:25.254Z,14.94
2022-10-22T07:48:25.254Z,15.05
2022-10-22T07:49:25.289Z,15.02
2022-10-22T07:50:25.372Z,15.05
2022-10-22T07:51:28.385Z,15.08
2022-10-22T07:52:25.264Z,15.12
2022-10-22T07:53:25.700Z,15.12
2022-10-22T07:54:25.305Z,15.18
2022-10-22T07:55:25.291Z,15.37
2022-10-22T07:56:28.362Z,15.52
2022-10-22T07:57:25.348Z,15.57
2022-10-22T07:58:25.278Z,15.69
2022-10-22T07:59:25.295Z,15.84
2022-10-22T08:00:29.161Z,15.76
2022-10-22T08:01:25.419Z,15.81
2022-10-22T08:02:25.539Z,15.85
2022-10-22T08:03:25.280Z,15.99
2022-10-22T08:04:25.133Z,16.12
2022-10-22T08:05:25.287Z,16.17
2022-10-22T08:06:25.309Z,16.34
2022-10-22T08:08:30.504Z,16.61
2022-10-22T08:09:25.310Z,16.72
2022-10-22T08:10:25.389Z,16.8
2022-10-22T08:11:25.326Z,16.8
2022-10-22T08:12:25.317Z,17.02
2022-10-22T08:13:28.039Z,17.05
2022-10-22T08:14:25.313Z,17.1
2022-10-22T08:15:25.307Z,17.16
2022-10-22T08:16:25.312Z,17.27
2022-10-22T08:17:25.178Z,17.27
2022-10-22T08:18:25.309Z,17.46
2022-10-22T08:19:25.362Z,17.46
2022-10-22T08:20:28.522Z,17.59
2022-10-22T08:21:25.319Z,17.68
2022-10-22T08:22:25.321Z,17.72
2022-10-22T08:23:32.096Z,17.71
2022-10-22T08:24:25.368Z,17.84
2022-10-22T08:25:25.326Z,17.79
2022-10-22T08:26:25.377Z,18
2022-10-22T08:27:25.351Z,18.23
2022-10-22T08:28:26.928Z,18.51
2022-10-22T08:29:25.369Z,18.6
2022-10-22T08:30:25.336Z,18.66
2022-10-22T08:31:25.335Z,18.63
2022-10-22T08:33:25.370Z,19.05
2022-10-22T08:34:28.255Z,19.32
2022-10-22T08:35:25.346Z,19.56
2022-10-22T08:36:25.340Z,19.34
2022-10-22T08:37:25.347Z,19.49
2022-10-22T08:38:25.349Z,19.42
2022-10-22T08:39:27.062Z,19.49
2022-10-22T08:40:25.353Z,19.55
2022-10-22T08:41:25.364Z,19.77
2022-10-22T08:42:25.379Z,19.77
2022-10-22T08:43:25.379Z,19.75
2022-10-22T08:44:25.440Z,20
2022-10-22T08:45:25.376Z,19.41
2022-10-22T08:46:25.368Z,19.71
2022-10-22T08:47:27.104Z,19.93
2022-10-22T08:48:25.368Z,20.36
2022-10-22T08:49:39.712Z,20.24
2022-10-22T08:50:28.516Z,20.37
2022-10-22T08:51:25.370Z,20.24
2022-10-22T08:52:25.369Z,20.24
2022-10-22T08:53:25.374Z,20.29
2022-10-22T08:54:25.382Z,20.17
2022-10-22T08:55:25.374Z,20.1
2022-10-22T08:56:25.421Z,20.7
2022-10-22T08:57:25.636Z,20.77
2022-10-22T08:58:25.421Z,20.85
2022-10-22T08:59:25.410Z,20.93
2022-10-22T09:00:25.410Z,21.08
2022-10-22T09:01:28.406Z,21.2
2022-10-22T09:02:25.386Z,21.43
2022-10-22T09:03:25.403Z,20.93
2022-10-22T09:04:25.490Z,21
2022-10-22T09:05:25.402Z,21.1
2022-10-22T09:06:25.428Z,20.86
2022-10-22T09:07:25.438Z,20.78
2022-10-22T09:08:25.393Z,20.77
2022-10-22T09:09:25.402Z,20.58
2022-10-22T09:10:25.400Z,20.67
2022-10-22T09:11:25.406Z,20.71
2022-10-22T09:12:29.332Z,20.68
2022-10-22T09:13:25.429Z,20.75
2022-10-22T09:14:25.446Z,20.48
2022-10-22T09:15:25.458Z,20.46
2022-10-22T09:16:25.469Z,20.4
2022-10-22T09:17:25.409Z,20.14
2022-10-22T09:18:25.424Z,20.18
2022-10-22T09:19:25.410Z,20.03
2022-10-22T09:20:25.668Z,19.92
2022-10-22T09:21:25.421Z,19.7
2022-10-22T09:22:25.545Z,19.7
2022-10-22T09:23:26.520Z,19.77
2022-10-22T09:24:26.641Z,19.67
2022-10-22T09:25:25.440Z,19.77
2022-10-22T09:26:25.472Z,19.64
2022-10-22T09:27:25.568Z,19.55
2022-10-22T09:28:25.580Z,19.49
2022-10-22T09:29:25.887Z,19.26
2022-10-22T09:30:25.458Z,19.22
2022-10-22T09:31:25.467Z,19.29
2022-10-22T09:32:25.452Z,19.16
2022-10-22T09:33:28.604Z,18.89
2022-10-22T09:34:28.264Z,18.81
2022-10-22T09:35:25.477Z,18.86
2022-10-22T09:36:25.476Z,19.04
2022-10-22T09:37:25.692Z,18.96
2022-10-22T09:38:25.547Z,18.92
2022-10-22T09:39:25.632Z,19.07
2022-10-22T09:40:25.480Z,19.35
2022-10-22T09:41:25.507Z,19.19
2022-10-22T09:42:25.461Z,19.41
2022-10-22T09:43:25.701Z,19.45
2022-10-22T09:44:25.503Z,19.42
2022-10-22T09:45:28.711Z,19.7
2022-10-22T09:46:25.475Z,19.57
2022-10-22T09:48:00.888Z,19.48
2022-10-22T09:48:25.479Z,19.52
2022-10-22T09:49:25.478Z,19.64
2022-10-22T09:50:25.508Z,19.77
2022-10-22T09:51:25.861Z,19.93
2022-10-22T09:52:28.510Z,20.02
2022-10-22T09:53:25.785Z,20
2022-10-22T09:54:25.518Z,20.14
2022-10-22T09:55:25.507Z,20.14
2022-10-22T09:56:46.406Z,20
2022-10-22T09:57:25.543Z,20
2022-10-22T09:58:28.622Z,20.02
2022-10-22T09:59:26.542Z,20.04
2022-10-22T10:00:25.513Z,20.17
2022-10-22T10:01:25.678Z,20.04
2022-10-22T10:02:42.777Z,20.15
2022-10-22T10:03:25.781Z,20.32
2022-10-22T10:05:25.552Z,20.21
2022-10-22T10:06:25.539Z,20.3
2022-10-22T10:07:28.666Z,20.37
2022-10-22T10:08:25.505Z,20.58
2022-10-22T10:09:25.873Z,20.5
2022-10-22T10:10:25.574Z,20.75
2022-10-22T10:11:31.607Z,20.73
2022-10-22T10:12:25.534Z,20.88
2022-10-22T10:13:25.544Z,20.8
2022-10-22T10:14:25.725Z,20.88
2022-10-22T10:15:25.560Z,21
2022-10-22T10:16:25.535Z,21.05
2022-10-22T10:17:25.545Z,20.9
2022-10-22T10:18:28.313Z,20.93
2022-10-22T10:19:28.276Z,21
2022-10-22T10:20:25.662Z,21.05
2022-10-22T10:21:25.558Z,21.28
2022-10-22T10:22:25.557Z,21.25
2022-10-22T10:23:30.029Z,21.33
2022-10-22T10:24:28.565Z,20.96
2022-10-22T10:25:25.560Z,20.7
2022-10-22T10:26:25.561Z,20.82
2022-10-22T10:27:25.558Z,20.98
2022-10-22T10:28:25.550Z,21.2
2022-10-22T10:29:25.774Z,21.4
2022-10-22T10:30:25.582Z,21.58
2022-10-22T10:31:25.554Z,21.69
2022-10-22T10:32:28.974Z,21.91
2022-10-22T10:33:25.718Z,21.88
2022-10-22T10:34:25.562Z,22
2022-10-22T10:35:25.666Z,22.07
2022-10-22T10:36:25.562Z,22.25
2022-10-22T10:37:25.561Z,22.12
2022-10-22T10:38:32.029Z,22.22
2022-10-22T10:39:28.348Z,22.36
2022-10-22T10:40:25.589Z,22.61
2022-10-22T10:41:25.604Z,22.65
2022-10-22T10:42:25.804Z,22.38
2022-10-22T10:43:25.574Z,22.47
2022-10-22T10:44:25.587Z,22.44
2022-10-22T10:45:25.604Z,22.52
2022-10-22T10:46:25.596Z,22.58
2022-10-22T10:47:25.584Z,22.59
2022-10-22T10:48:25.605Z,22.8
2022-10-22T10:49:25.589Z,22.86
2022-10-22T10:50:28.434Z,22.99
2022-10-22T10:51:25.602Z,23.21
2022-10-22T10:52:26.057Z,23.18
2022-10-22T10:53:25.617Z,23.42
2022-10-22T10:54:25.652Z,23.28
2022-10-22T10:55:25.654Z,22.67
2022-10-22T10:56:25.611Z,22.62
2022-10-22T10:57:25.611Z,22.49
2022-10-22T10:58:25.658Z,22.25
2022-10-22T10:59:25.630Z,22.07
2022-10-22T11:00:25.662Z,22.1
2022-10-22T11:01:28.591Z,21.6
2022-10-22T11:02:25.611Z,21.63
2022-10-22T11:03:25.616Z,21.78
2022-10-22T11:04:25.673Z,21.6
2022-10-22T11:05:25.661Z,21.51
2022-10-22T11:06:30.228Z,21.45
2022-10-22T11:07:39.160Z,21.3
2022-10-22T11:08:25.622Z,21.37
2022-10-22T11:09:25.626Z,21.38
2022-10-22T11:10:25.649Z,21.35
2022-10-22T11:11:25.696Z,20.82
2022-10-22T11:12:28.716Z,20.92
2022-10-22T11:13:25.624Z,20.8
2022-10-22T11:14:29.967Z,20.7
2022-10-22T11:15:25.663Z,20.8
2022-10-22T11:16:25.649Z,20.8
2022-10-22T11:17:28.438Z,20.74
2022-10-22T11:18:25.638Z,20.75
2022-10-22T11:19:54.770Z,20.6
2022-10-22T11:20:25.665Z,20.56
2022-10-22T11:21:25.639Z,20.77
2022-10-22T11:22:31.046Z,20.53
2022-10-22T11:23:33.510Z,20.63
2022-10-22T11:24:25.650Z,20.39
2022-10-22T11:25:25.681Z,20.22
2022-10-22T11:26:25.656Z,20.36
2022-10-22T11:27:25.658Z,20.46
2022-10-22T11:28:28.781Z,20.67
2022-10-22T11:29:26.394Z,20.77
2022-10-22T11:30:25.747Z,20.95
2022-10-22T11:31:25.719Z,20.71
2022-10-22T11:32:25.657Z,20.9
2022-10-22T11:33:25.667Z,20.74
2022-10-22T11:34:38.195Z,20.71
2022-10-22T11:35:30.243Z,20.95
2022-10-22T11:36:25.891Z,21.14
2022-10-22T11:37:25.686Z,21.44
2022-10-22T11:38:25.702Z,21.47
2022-10-22T11:39:28.801Z,21.45
2022-10-22T11:40:25.703Z,21.69
2022-10-22T11:41:25.682Z,21.84
2022-10-22T11:42:25.708Z,22.01
2022-10-22T11:43:25.692Z,21.84
2022-10-22T11:44:25.708Z,21.53
2022-10-22T11:45:25.709Z,21.6
2022-10-22T11:46:25.741Z,21.63
2022-10-22T11:47:25.904Z,21.33
2022-10-22T11:48:25.711Z,21.6
2022-10-22T11:49:25.694Z,21.62
2022-10-22T11:50:28.690Z,21.72
2022-10-22T11:51:25.690Z,21.88
2022-10-22T11:52:25.694Z,21.85
2022-10-22T11:53:25.696Z,22
2022-10-22T11:54:25.730Z,22.18
2022-10-22T11:55:26.144Z,22.16
2022-10-22T11:56:25.771Z,22.14
2022-10-22T11:57:25.760Z,22.36
2022-10-22T11:58:28.465Z,22.28
2022-10-22T11:59:25.743Z,22.46
2022-10-22T12:00:25.752Z,22.26
2022-10-22T12:01:28.835Z,22.38
2022-10-22T12:02:25.762Z,22.38
2022-10-22T12:03:25.724Z,22.46
2022-10-22T12:04:28.999Z,22.53
2022-10-22T12:05:25.737Z,22.31
2022-10-22T12:06:26.833Z,22.52
2022-10-22T12:07:25.736Z,22.73
2022-10-22T12:08:25.736Z,22.89
2022-10-22T12:09:25.741Z,22.89
2022-10-22T12:10:25.906Z,22.93
2022-10-22T12:11:25.790Z,22.92
2022-10-22T12:12:28.587Z,22.92
2022-10-22T12:13:25.738Z,22.98
2022-10-22T12:14:25.740Z,22.93
2022-10-22T12:15:25.765Z,22.89
2022-10-22T12:16:57.997Z,22.95
2022-10-22T12:17:25.745Z,22.88
2022-10-22T12:18:25.770Z,23.04
2022-10-22T12:19:25.752Z,23.06
2022-10-22T12:20:25.765Z,22.91
2022-10-22T12:21:25.897Z,23.04
2022-10-22T12:22:25.774Z,23.14
2022-10-22T12:23:28.782Z,22.91
2022-10-22T12:24:25.955Z,23.01
2022-10-22T12:25:25.778Z,22.98
2022-10-22T12:26:25.970Z,23.02
2022-10-22T12:27:27.700Z,23.21
2022-10-22T12:28:25.801Z,23.26
2022-10-22T12:29:25.782Z,23.04
2022-10-22T12:30:28.772Z,22.98
2022-10-22T12:31:25.782Z,22.88
2022-10-22T12:32:25.771Z,22.77
2022-10-22T12:33:25.791Z,22.67
2022-10-22T12:34:28.777Z,22.58
2022-10-22T12:35:25.813Z,22.67
2022-10-22T12:36:25.833Z,22.78
2022-10-22T12:37:25.775Z,22.96
2022-10-22T12:38:26.898Z,22.76
2022-10-22T12:39:25.775Z,22.59
2022-10-22T12:40:25.804Z,22.23
2022-10-22T12:41:25.900Z,22.38
2022-10-22T12:42:25.809Z,22.43
2022-10-22T12:43:25.796Z,22.51
2022-10-22T12:44:25.792Z,22.8
2022-10-22T12:45:26.913Z,22.51
2022-10-22T12:46:25.801Z,22.55
2022-10-22T12:47:25.800Z,22.7
2022-10-22T12:48:25.804Z,22.62
2022-10-22T12:49:25.797Z,22.73
2022-10-22T12:50:26.299Z,22.88
2022-10-22T12:51:26.002Z,22.96
2022-10-22T12:52:25.837Z,22.74
2022-10-22T12:53:25.802Z,22.67
2022-10-22T12:54:25.842Z,22.4
2022-10-22T12:55:25.844Z,22.33
2022-10-22T12:56:25.818Z,22.53
2022-10-22T12:57:25.826Z,22.46
2022-10-22T12:58:25.843Z,22.28
2022-10-22T12:59:25.825Z,22
2022-10-22T13:00:26.128Z,22.01
2022-10-22T13:01:25.878Z,22.01
2022-10-22T13:02:25.819Z,21.78
2022-10-22T13:03:25.829Z,21.84
2022-10-22T13:04:25.833Z,21.74
2022-10-22T13:05:25.859Z,21.7
2022-10-22T13:06:25.850Z,21.83